Forside
METAR-TAF:

METAR-TAF

Lufthavne :

Chisholm-Hibbing Airport

Hibbing, Minnesota, USA

Breddekreds: 47-23-12N, længdekreds: 092-50-20W, højde: 412 m

Aktuelle vejr

Denne rapport blev lavet for 32 minutter siden, kl. 14:53 UTC
Vind stille
Temperatur 9°C
Fugtighed 46%
Tryk 1021 hPa
Sigt: 16.1 km
skyfri

METAR: KHIB 201453Z AUTO 00000KT 10SM CLR 09/M02 A3015 RMK AO2 SLP224 T00941022 51019

Tid: 10:25 (15:25 UTC)

Vejrudsigter

Denne rapport blev lavet for 3 timer og 55 minutter siden, kl. 11:30 UTC
Foreløbig gælder fra 20 på 12 UTC til 21 på 12 UTC
Vind 2 kt fra varierende retninger
Sigt: 10 km
Spredte skyer i en højde af 25000 ft

TAF: KHIB 201130Z 2012/2112 VRB02KT P6SM SCT250

Vejrobservationer og prognoser fra mere end 4000 lufthavne (METAR og TAF).

De gule og røde prikker repræsenterer de meteorologiske stationer.

Flyt musen over at se navnet på stationen.

Så klik over at se vejr observationer og prognoser.

At skifte det kort: Klik på de grønne knapper med et sort kors for at zoome ind; på den grønne knap med en bindestreg for at zoome ud; eller på de grønne pile for tilstødende kort.


METAR-TAF: